Time;durP1;ratioP1;P1;durP2;ratioP2;P2;SDS_P1;SDS_P2;PMS_P1;PMS_P2;Temp;Humidity;BMP_temperature;BMP_pressure;BME280_temperature;BME280_humidity;BME280_pressure;Samples;Min_cycle;Max_cycle;Signal;HPM_P1;HPM_P2
2021/07/28 00:01:32;;;;;;;8.27;3.85;;;;;;;;;;4990135;28;20023;-76
2021/07/28 00:03:58;;;;;;;10.75;3.78;;;;;;;;;;4991049;28;20657;-75
2021/07/28 00:06:24;;;;;;;5.90;3.40;;;;;;;;;;4979376;28;20034;-76
2021/07/28 00:08:50;;;;;;;15.40;4.30;;;;;;;;;;5001466;28;20449;-75
2021/07/28 00:11:17;;;;;;;6.22;3.53;;;;;;;;;;4979127;28;20046;-76
2021/07/28 00:13:45;;;;;;;9.20;3.75;;;;;;;;;;4983211;28;20085;-75
2021/07/28 00:16:12;;;;;;;10.60;3.50;;;;;;;;;;4984416;28;20108;-76
2021/07/28 00:18:50;;;;;;;10.95;4.18;;;;;;;;;;4986769;28;20045;-76
2021/07/28 00:24:00;;;;;;;6.30;3.20;;;;;;;;;;4975190;28;20095;-76
2021/07/28 00:26:26;;;;;;;7.97;3.50;;;;;;;;;;4987321;28;20034;-76
2021/07/28 00:28:51;;;;;;;10.05;3.20;;;;;;;;;;4986354;28;20386;-75
2021/07/28 00:31:17;;;;;;;7.97;3.03;;;;;;;;;;4969568;28;20030;-76
2021/07/28 00:33:42;;;;;;;12.25;3.33;;;;;;;;;;4991479;28;20034;-77
2021/07/28 00:36:08;;;;;;;10.30;3.55;;;;;;;;;;5002029;28;20041;-76
2021/07/28 00:38:33;;;;;;;8.10;3.25;;;;;;;;;;4973790;28;20485;-76
2021/07/28 00:40:59;;;;;;;10.77;3.60;;;;;;;;;;4969261;28;20063;-76
2021/07/28 00:43:24;;;;;;;6.65;3.38;;;;;;;;;;4989728;28;20501;-76
2021/07/28 00:45:51;;;;;;;8.93;3.25;;;;;;;;;;4979591;28;20034;-76
2021/07/28 00:48:16;;;;;;;8.00;3.22;;;;;;;;;;4982192;28;20073;-76
2021/07/28 00:50:43;;;;;;;8.77;3.67;;;;;;;;;;4989922;28;20104;-76
2021/07/28 00:53:17;;;;;;;6.70;3.25;;;;;;;;;;4996013;28;20164;-76
2021/07/28 00:55:43;;;;;;;6.57;3.20;;;;;;;;;;4982419;28;20030;-76
2021/07/28 00:58:08;;;;;;;6.82;3.20;;;;;;;;;;4962175;28;20027;-75
2021/07/28 01:00:34;;;;;;;5.97;3.30;;;;;;;;;;4986765;28;20078;-76
2021/07/28 01:02:59;;;;;;;10.65;3.00;;;;;;;;;;4986848;28;20038;-76
2021/07/28 01:05:25;;;;;;;6.90;3.17;;;;;;;;;;4990242;28;20038;-76
2021/07/28 01:07:50;;;;;;;8.93;3.35;;;;;;;;;;4984787;28;20034;-74
2021/07/28 01:10:16;;;;;;;9.10;3.35;;;;;;;;;;4988305;28;20485;-76
2021/07/28 01:12:45;;;;;;;9.45;3.50;;;;;;;;;;4982565;28;20026;-76
2021/07/28 01:15:20;;;;;;;9.95;3.40;;;;;;;;;;4971852;28;20117;-75
2021/07/28 01:17:46;;;;;;;12.23;3.45;;;;;;;;;;4973414;28;20509;-76
2021/07/28 01:20:12;;;;;;;9.27;3.40;;;;;;;;;;4970556;28;20038;-76
2021/07/28 01:22:38;;;;;;;8.52;2.92;;;;;;;;;;4983140;28;20038;-75
2021/07/28 01:25:04;;;;;;;9.25;2.97;;;;;;;;;;4983038;28;20029;-76
2021/07/28 01:27:30;;;;;;;10.32;3.50;;;;;;;;;;4985710;28;20073;-75
2021/07/28 01:29:55;;;;;;;9.55;3.20;;;;;;;;;;4987125;28;20644;-76
2021/07/28 01:32:21;;;;;;;12.15;3.15;;;;;;;;;;4956721;28;20031;-76
2021/07/28 01:34:47;;;;;;;7.68;3.22;;;;;;;;;;4980421;28;20026;-75
2021/07/28 01:37:14;;;;;;;8.73;3.13;;;;;;;;;;4976929;28;20044;-76
2021/07/28 01:39:40;;;;;;;6.13;3.05;;;;;;;;;;4988139;28;20061;-75
2021/07/28 01:42:05;;;;;;;7.95;3.30;;;;;;;;;;4982583;28;20027;-76
2021/07/28 01:44:36;;;;;;;8.25;3.70;;;;;;;;;;4966507;28;20026;-75
2021/07/28 01:47:02;;;;;;;7.40;3.75;;;;;;;;;;4986958;28;20050;-76
2021/07/28 01:49:27;;;;;;;5.40;3.20;;;;;;;;;;4967988;28;20371;-76
2021/07/28 01:51:53;;;;;;;10.70;3.72;;;;;;;;;;4989417;28;20456;-76
2021/07/28 01:54:18;;;;;;;9.30;3.95;;;;;;;;;;4956327;28;20466;-75
2021/07/28 01:56:44;;;;;;;6.30;3.55;;;;;;;;;;4983950;28;20081;-76
2021/07/28 01:59:14;;;;;;;5.53;3.50;;;;;;;;;;4981691;28;20722;-76
2021/07/28 02:01:40;;;;;;;10.50;3.60;;;;;;;;;;4984850;28;20105;-76
2021/07/28 02:04:05;;;;;;;8.90;3.50;;;;;;;;;;4965718;28;20441;-76
2021/07/28 02:06:32;;;;;;;6.00;3.38;;;;;;;;;;4989149;28;20045;-75
2021/07/28 02:08:57;;;;;;;13.35;3.67;;;;;;;;;;5001170;28;20089;-75
2021/07/28 02:11:23;;;;;;;20.25;3.50;;;;;;;;;;4978036;28;20018;-75
2021/07/28 02:13:48;;;;;;;9.43;3.75;;;;;;;;;;4968321;28;20130;-75
2021/07/28 02:16:14;;;;;;;8.98;3.50;;;;;;;;;;4986824;28;20026;-76
2021/07/28 02:18:39;;;;;;;14.13;3.95;;;;;;;;;;4969548;28;20154;-76
2021/07/28 02:21:05;;;;;;;9.35;3.65;;;;;;;;;;4968612;28;20678;-75
2021/07/28 02:23:31;;;;;;;8.10;3.53;;;;;;;;;;4983408;28;20041;-75
2021/07/28 02:25:57;;;;;;;6.57;3.60;;;;;;;;;;4986713;28;20093;-75
2021/07/28 02:28:23;;;;;;;9.63;3.40;;;;;;;;;;4985842;28;20609;-75
2021/07/28 02:30:48;;;;;;;3.95;2.65;;;;;;;;;;4990402;28;20042;-76
2021/07/28 02:33:14;;;;;;;6.85;3.10;;;;;;;;;;4972447;28;20165;-76
2021/07/28 02:35:39;;;;;;;5.68;3.45;;;;;;;;;;4980368;28;20366;-76
2021/07/28 02:38:05;;;;;;;6.75;3.42;;;;;;;;;;4984108;28;20022;-77
2021/07/28 02:40:30;;;;;;;13.52;3.70;;;;;;;;;;4983576;28;20073;-75
2021/07/28 02:42:56;;;;;;;9.88;4.68;;;;;;;;;;4987713;28;20125;-76
2021/07/28 02:45:21;;;;;;;5.57;3.55;;;;;;;;;;4983618;28;20525;-76
2021/07/28 02:47:47;;;;;;;7.50;3.58;;;;;;;;;;4989394;28;20371;-77
2021/07/28 02:50:13;;;;;;;6.88;3.35;;;;;;;;;;4974752;28;20100;-76
2021/07/28 02:52:38;;;;;;;9.98;3.53;;;;;;;;;;4992799;28;20567;-76
2021/07/28 02:55:06;;;;;;;5.78;3.30;;;;;;;;;;4983089;28;20068;-76
2021/07/28 02:57:32;;;;;;;13.35;3.15;;;;;;;;;;4991938;28;20538;-76
2021/07/28 02:59:58;;;;;;;8.70;3.85;;;;;;;;;;4987756;28;20518;-75
2021/07/28 03:02:23;;;;;;;9.80;3.78;;;;;;;;;;4968300;28;20050;-75
2021/07/28 03:04:49;;;;;;;16.02;4.15;;;;;;;;;;4992484;28;20051;-75
2021/07/28 03:07:14;;;;;;;8.73;4.13;;;;;;;;;;4990811;28;20109;-76
2021/07/28 03:09:40;;;;;;;8.57;3.78;;;;;;;;;;4987691;28;20042;-76
2021/07/28 03:12:06;;;;;;;9.23;3.45;;;;;;;;;;4984637;28;20609;-75
2021/07/28 03:14:31;;;;;;;6.13;3.72;;;;;;;;;;4990782;28;20046;-76
2021/07/28 03:16:56;;;;;;;6.75;3.45;;;;;;;;;;4991079;28;20572;-77
2021/07/28 03:19:22;;;;;;;12.43;3.60;;;;;;;;;;4984661;28;20040;-76
2021/07/28 03:21:49;;;;;;;11.05;3.65;;;;;;;;;;4975695;28;20048;-76
2021/07/28 03:24:16;;;;;;;10.32;3.65;;;;;;;;;;4988706;28;20030;-76
2021/07/28 03:26:42;;;;;;;15.13;3.55;;;;;;;;;;4990748;28;20034;-76
2021/07/28 03:29:07;;;;;;;6.72;3.38;;;;;;;;;;4958374;28;20085;-75
2021/07/28 03:31:32;;;;;;;8.52;4.55;;;;;;;;;;4997112;28;20045;-75
2021/07/28 03:33:58;;;;;;;4.85;3.50;;;;;;;;;;4987224;28;20026;-75
2021/07/28 03:36:23;;;;;;;5.78;3.38;;;;;;;;;;4992857;28;20113;-75
2021/07/28 03:38:49;;;;;;;8.25;3.33;;;;;;;;;;4965425;28;20065;-76
2021/07/28 03:41:14;;;;;;;6.80;3.47;;;;;;;;;;4986140;28;20080;-76
2021/07/28 03:43:40;;;;;;;7.28;4.00;;;;;;;;;;4988724;28;20085;-75
2021/07/28 03:46:05;;;;;;;8.75;3.65;;;;;;;;;;4986253;28;20062;-76
2021/07/28 03:48:31;;;;;;;5.80;3.58;;;;;;;;;;4958328;28;20511;-76
2021/07/28 03:51:00;;;;;;;6.32;3.40;;;;;;;;;;4996790;28;20038;-75
2021/07/28 03:53:26;;;;;;;10.23;3.50;;;;;;;;;;4981179;28;20534;-75
2021/07/28 03:55:52;;;;;;;12.90;4.00;;;;;;;;;;4989039;28;20030;-76
2021/07/28 03:58:18;;;;;;;7.88;3.15;;;;;;;;;;4985062;28;20036;-76
2021/07/28 04:00:43;;;;;;;9.18;3.83;;;;;;;;;;4988343;28;20034;-76
2021/07/28 04:03:08;;;;;;;6.60;3.58;;;;;;;;;;4987727;28;20493;-76
2021/07/28 04:05:34;;;;;;;6.53;3.70;;;;;;;;;;4985153;28;20030;-76
2021/07/28 04:08:00;;;;;;;7.13;3.03;;;;;;;;;;4965271;28;20056;-76
2021/07/28 04:10:25;;;;;;;5.70;3.60;;;;;;;;;;4993805;28;20046;-75
2021/07/28 04:12:51;;;;;;;9.27;3.58;;;;;;;;;;4980602;28;20126;-75
2021/07/28 04:15:17;;;;;;;9.20;3.47;;;;;;;;;;4965914;28;20092;-75
2021/07/28 04:17:42;;;;;;;8.48;2.95;;;;;;;;;;4976004;28;20030;-75
2021/07/28 04:20:08;;;;;;;10.88;3.88;;;;;;;;;;4989320;28;20084;-75
2021/07/28 04:22:33;;;;;;;6.15;3.05;;;;;;;;;;4981892;28;20045;-76
2021/07/28 04:25:01;;;;;;;8.93;3.60;;;;;;;;;;4984450;28;20121;-75
2021/07/28 04:27:29;;;;;;;8.93;3.25;;;;;;;;;;4995898;28;20045;-75
2021/07/28 04:29:55;;;;;;;11.25;3.20;;;;;;;;;;4984920;28;20034;-75
2021/07/28 04:32:21;;;;;;;8.23;3.70;;;;;;;;;;4969976;28;20548;-76
2021/07/28 04:34:46;;;;;;;8.48;3.80;;;;;;;;;;4994521;28;20034;-76
2021/07/28 04:37:12;;;;;;;9.60;3.28;;;;;;;;;;4991483;28;20080;-76
2021/07/28 04:39:37;;;;;;;7.25;3.25;;;;;;;;;;4974368;28;20042;-76
2021/07/28 04:42:03;;;;;;;9.25;3.53;;;;;;;;;;4979702;28;20118;-76
2021/07/28 04:44:28;;;;;;;20.15;4.57;;;;;;;;;;4991280;28;20034;-76
2021/07/28 04:46:56;;;;;;;8.02;3.08;;;;;;;;;;4981308;28;20039;-76
2021/07/28 04:49:22;;;;;;;8.45;2.80;;;;;;;;;;5005604;28;20774;-77
2021/07/28 04:51:47;;;;;;;4.90;2.58;;;;;;;;;;4982845;28;20037;-76
2021/07/28 04:54:13;;;;;;;11.15;3.50;;;;;;;;;;4978218;28;20132;-75
2021/07/28 04:56:38;;;;;;;7.40;2.83;;;;;;;;;;4980681;28;20033;-77
2021/07/28 04:59:04;;;;;;;7.03;2.97;;;;;;;;;;4968366;28;20121;-75
2021/07/28 05:01:29;;;;;;;5.72;2.35;;;;;;;;;;4967152;28;20034;-75
2021/07/28 05:03:55;;;;;;;9.90;3.28;;;;;;;;;;4989668;28;20034;-75
2021/07/28 05:06:20;;;;;;;7.10;2.25;;;;;;;;;;4964051;28;20034;-76
2021/07/28 05:08:46;;;;;;;8.15;2.60;;;;;;;;;;4981976;28;20033;-75
2021/07/28 05:11:11;;;;;;;8.98;3.28;;;;;;;;;;4966419;28;20022;-76
2021/07/28 05:13:37;;;;;;;3.72;2.42;;;;;;;;;;4989795;28;20033;-76
2021/07/28 05:16:02;;;;;;;5.55;2.63;;;;;;;;;;4987598;28;20044;-76
2021/07/28 05:18:28;;;;;;;7.82;3.00;;;;;;;;;;4984322;28;20041;-75
2021/07/28 05:20:53;;;;;;;3.92;2.65;;;;;;;;;;4987588;28;20054;-75
2021/07/28 05:23:19;;;;;;;8.00;2.70;;;;;;;;;;4985410;28;20517;-74
2021/07/28 05:25:44;;;;;;;9.52;3.20;;;;;;;;;;4981887;28;20491;-75
2021/07/28 05:28:10;;;;;;;8.75;2.88;;;;;;;;;;4989805;28;20042;-76
2021/07/28 05:30:35;;;;;;;9.27;3.28;;;;;;;;;;4983454;28;20045;-75
2021/07/28 05:33:01;;;;;;;6.90;2.90;;;;;;;;;;4985278;28;20502;-76
2021/07/28 05:35:27;;;;;;;6.50;3.30;;;;;;;;;;4984174;28;20038;-75
2021/07/28 05:37:59;;;;;;;6.85;3.45;;;;;;;;;;4983293;28;20026;-74
2021/07/28 05:40:25;;;;;;;9.18;3.33;;;;;;;;;;4981292;28;20091;-75
2021/07/28 05:42:51;;;;;;;5.90;3.30;;;;;;;;;;4982816;28;20472;-76
2021/07/28 05:45:16;;;;;;;6.70;2.92;;;;;;;;;;4976510;28;20122;-75
2021/07/28 05:47:44;;;;;;;10.45;3.17;;;;;;;;;;4987274;28;20061;-75
2021/07/28 05:50:14;;;;;;;8.13;3.05;;;;;;;;;;4992821;28;20073;-75
2021/07/28 05:52:39;;;;;;;10.40;2.30;;;;;;;;;;4994418;28;20109;-75
2021/07/28 05:55:06;;;;;;;10.23;3.40;;;;;;;;;;4983893;28;20341;-75
2021/07/28 05:57:31;;;;;;;6.20;2.00;;;;;;;;;;4965588;28;20126;-75
2021/07/28 05:59:57;;;;;;;5.28;2.20;;;;;;;;;;4986262;28;20502;-75
2021/07/28 06:02:22;;;;;;;4.88;2.08;;;;;;;;;;4970097;28;20039;-75
2021/07/28 06:04:48;;;;;;;4.05;1.75;;;;;;;;;;4988092;28;20564;-75
2021/07/28 06:07:13;;;;;;;5.07;2.10;;;;;;;;;;4992464;28;20041;-75
2021/07/28 06:09:40;;;;;;;7.22;2.17;;;;;;;;;;4991893;28;20112;-75
2021/07/28 06:12:06;;;;;;;4.63;2.00;;;;;;;;;;4958683;28;20094;-76
2021/07/28 06:14:32;;;;;;;4.50;1.65;;;;;;;;;;4999030;28;20033;-74
2021/07/28 06:16:57;;;;;;;12.30;2.00;;;;;;;;;;4991559;28;20030;-75
2021/07/28 06:19:23;;;;;;;4.07;1.98;;;;;;;;;;4987475;28;20049;-75
2021/07/28 06:21:48;;;;;;;5.80;1.73;;;;;;;;;;4970492;28;20065;-76
2021/07/28 06:24:14;;;;;;;3.78;1.52;;;;;;;;;;4987590;28;20034;-75
2021/07/28 06:26:39;;;;;;;2.30;1.17;;;;;;;;;;4986291;28;20034;-76
2021/07/28 06:29:04;;;;;;;4.55;1.52;;;;;;;;;;4982348;28;20030;-75
2021/07/28 06:31:30;;;;;;;2.10;1.10;;;;;;;;;;4992455;28;20037;-75
2021/07/28 06:33:55;;;;;;;7.10;1.95;;;;;;;;;;4971921;28;20036;-76
2021/07/28 06:36:21;;;;;;;5.45;1.50;;;;;;;;;;4994725;28;20049;-76
2021/07/28 06:38:46;;;;;;;3.22;1.30;;;;;;;;;;4992080;28;20037;-76
2021/07/28 06:41:12;;;;;;;4.35;1.10;;;;;;;;;;4975581;28;20092;-76
2021/07/28 06:43:37;;;;;;;5.60;1.90;;;;;;;;;;4995650;28;20028;-75
2021/07/28 06:46:03;;;;;;;2.88;0.88;;;;;;;;;;4992268;28;20497;-76
2021/07/28 06:48:28;;;;;;;3.72;0.90;;;;;;;;;;4988245;28;20022;-75
2021/07/28 06:50:54;;;;;;;5.43;0.80;;;;;;;;;;4987183;28;20026;-76
2021/07/28 06:53:19;;;;;;;5.57;1.38;;;;;;;;;;4987949;28;20034;-76
2021/07/28 06:55:45;;;;;;;5.32;1.25;;;;;;;;;;4987210;28;20069;-75
2021/07/28 06:58:10;;;;;;;4.00;1.10;;;;;;;;;;4992239;28;20026;-76
2021/07/28 07:00:36;;;;;;;2.20;1.02;;;;;;;;;;4982955;28;20137;-76
2021/07/28 07:03:01;;;;;;;4.65;1.27;;;;;;;;;;4992677;28;20531;-75
2021/07/28 07:05:27;;;;;;;5.32;1.13;;;;;;;;;;4968567;28;20029;-76
2021/07/28 07:07:53;;;;;;;3.28;1.02;;;;;;;;;;4997702;28;20528;-76
2021/07/28 07:10:18;;;;;;;4.38;1.15;;;;;;;;;;4979138;28;20109;-76
2021/07/28 07:12:44;;;;;;;2.90;0.68;;;;;;;;;;4990009;28;20031;-75
2021/07/28 07:15:10;;;;;;;4.38;0.80;;;;;;;;;;4991038;28;20038;-76
2021/07/28 07:17:35;;;;;;;8.85;1.08;;;;;;;;;;4996871;28;20018;-75
2021/07/28 07:20:01;;;;;;;5.63;1.35;;;;;;;;;;4997425;28;20057;-76
2021/07/28 07:22:26;;;;;;;4.55;0.95;;;;;;;;;;4995488;28;20045;-76
2021/07/28 07:24:52;;;;;;;7.63;1.13;;;;;;;;;;4981966;28;20168;-75
2021/07/28 07:27:17;;;;;;;2.42;0.90;;;;;;;;;;4994949;28;20046;-75
2021/07/28 07:29:43;;;;;;;4.70;0.80;;;;;;;;;;4994625;28;20128;-76
2021/07/28 07:32:09;;;;;;;4.15;1.00;;;;;;;;;;4989104;28;20038;-74
2021/07/28 07:34:34;;;;;;;4.10;1.00;;;;;;;;;;4993871;28;20037;-75
2021/07/28 07:37:00;;;;;;;2.67;0.95;;;;;;;;;;4991255;28;20026;-76
2021/07/28 07:39:25;;;;;;;3.40;0.80;;;;;;;;;;4989848;28;20090;-75
2021/07/28 07:41:51;;;;;;;1.75;0.82;;;;;;;;;;4984614;28;20041;-75
2021/07/28 07:44:16;;;;;;;5.88;1.00;;;;;;;;;;5016720;28;20038;-75
2021/07/28 07:46:43;;;;;;;5.68;0.90;;;;;;;;;;4985502;28;20042;-74
2021/07/28 07:49:08;;;;;;;5.22;0.80;;;;;;;;;;4988988;28;20026;-75
2021/07/28 07:51:34;;;;;;;4.95;0.80;;;;;;;;;;4988231;28;20019;-75
2021/07/28 07:53:59;;;;;;;1.17;0.85;;;;;;;;;;4973033;28;20034;-75
2021/07/28 07:56:25;;;;;;;6.93;1.20;;;;;;;;;;4990867;28;20211;-75
2021/07/28 07:58:50;;;;;;;5.65;2.10;;;;;;;;;;4997312;28;20101;-75
2021/07/28 08:01:16;;;;;;;3.22;1.08;;;;;;;;;;4994660;28;20030;-75
2021/07/28 08:03:42;;;;;;;4.47;1.10;;;;;;;;;;4991361;28;20042;-75
2021/07/28 08:06:12;;;;;;;8.75;0.85;;;;;;;;;;4997082;28;20028;-75
2021/07/28 08:08:41;;;;;;;4.55;0.95;;;;;;;;;;4985378;28;20030;-76
2021/07/28 08:11:11;;;;;;;2.75;0.60;;;;;;;;;;4982526;28;20497;-75
2021/07/28 08:13:37;;;;;;;1.95;0.57;;;;;;;;;;4992590;28;20038;-74
2021/07/28 08:16:18;;;;;;;1.67;0.52;;;;;;;;;;4994909;28;20595;-75
2021/07/28 08:18:44;;;;;;;2.40;0.73;;;;;;;;;;4993046;28;20069;-75
2021/07/28 08:21:10;;;;;;;2.60;0.70;;;;;;;;;;4995267;28;20053;-75
2021/07/28 08:23:38;;;;;;;2.20;0.43;;;;;;;;;;4985412;28;20584;-77
2021/07/28 08:26:04;;;;;;;3.20;0.50;;;;;;;;;;4986496;28;20038;-75
2021/07/28 08:28:29;;;;;;;2.35;0.70;;;;;;;;;;4995911;28;20132;-74
2021/07/28 08:30:55;;;;;;;13.35;2.00;;;;;;;;;;4992176;28;20100;-74
2021/07/28 08:33:25;;;;;;;2.42;0.50;;;;;;;;;;4994946;28;20141;-76
2021/07/28 08:35:53;;;;;;;3.63;1.92;;;;;;;;;;5001580;28;20148;-77
2021/07/28 08:38:21;;;;;;;2.08;0.32;;;;;;;;;;4973634;28;20462;-76
2021/07/28 08:40:56;;;;;;;1.70;0.63;;;;;;;;;;4993576;28;20054;-75
2021/07/28 08:43:26;;;;;;;3.42;1.40;;;;;;;;;;4989628;28;20116;-76
2021/07/28 08:45:53;;;;;;;1.35;0.50;;;;;;;;;;4998100;28;20065;-76
2021/07/28 08:48:22;;;;;;;1.15;0.50;;;;;;;;;;4998199;28;20018;-76
2021/07/28 08:50:48;;;;;;;2.25;0.40;;;;;;;;;;4994084;28;20026;-77
2021/07/28 08:53:13;;;;;;;2.10;0.70;;;;;;;;;;4976662;28;20045;-76
2021/07/28 08:55:39;;;;;;;1.90;0.65;;;;;;;;;;4999039;28;20393;-76
2021/07/28 08:58:07;;;;;;;1.27;0.47;;;;;;;;;;4989400;28;20042;-76
2021/07/28 09:00:47;;;;;;;5.28;0.60;;;;;;;;;;4994137;28;20093;-75
2021/07/28 09:03:13;;;;;;;1.40;0.50;;;;;;;;;;4995892;28;20034;-76
2021/07/28 09:05:43;;;;;;;2.45;0.70;;;;;;;;;;5003416;28;20029;-76
2021/07/28 09:08:30;;;;;;;1.65;0.50;;;;;;;;;;4991578;28;20038;-75
2021/07/28 09:11:04;;;;;;;3.55;0.55;;;;;;;;;;4992946;28;20393;-75
2021/07/28 09:13:32;;;;;;;4.63;1.15;;;;;;;;;;5004027;28;20033;-76
2021/07/28 09:16:00;;;;;;;2.25;0.60;;;;;;;;;;4989044;28;20688;-76
2021/07/28 09:18:40;;;;;;;4.07;1.02;;;;;;;;;;4997341;28;20457;-77
2021/07/28 09:21:24;;;;;;;1.88;0.60;;;;;;;;;;4992884;28;20019;-76
2021/07/28 09:24:01;;;;;;;1.25;0.40;;;;;;;;;;4998071;28;20038;-76
2021/07/28 09:26:29;;;;;;;2.55;0.50;;;;;;;;;;4995911;28;20026;-76
2021/07/28 09:29:15;;;;;;;4.45;1.50;;;;;;;;;;4999128;28;20025;-76
2021/07/28 09:31:42;;;;;;;1.40;0.50;;;;;;;;;;5002438;28;20018;-76
2021/07/28 09:34:19;;;;;;;2.25;0.70;;;;;;;;;;4994358;28;20031;-75
2021/07/28 09:36:45;;;;;;;2.35;0.57;;;;;;;;;;4991827;28;20029;-76
2021/07/28 09:39:29;;;;;;;7.13;0.60;;;;;;;;;;5000659;28;20062;-75
2021/07/28 09:41:57;;;;;;;2.00;0.40;;;;;;;;;;4991710;28;20038;-76
2021/07/28 09:44:33;;;;;;;5.32;0.40;;;;;;;;;;4999087;28;20033;-77
2021/07/28 09:47:04;;;;;;;2.67;0.63;;;;;;;;;;5005187;28;20029;-77
2021/07/28 09:49:30;;;;;;;5.35;0.30;;;;;;;;;;4995195;28;20046;-75
2021/07/28 09:51:56;;;;;;;3.22;0.38;;;;;;;;;;4993880;28;20038;-76
2021/07/28 09:54:29;;;;;;;5.13;0.65;;;;;;;;;;4998172;28;20311;-77
2021/07/28 09:56:55;;;;;;;3.72;0.80;;;;;;;;;;5001615;28;20056;-75
2021/07/28 09:59:24;;;;;;;3.20;0.77;;;;;;;;;;5011259;28;20034;-75
2021/07/28 10:01:55;;;;;;;4.03;0.52;;;;;;;;;;4983679;28;20045;-75
2021/07/28 10:04:20;;;;;;;3.28;0.85;;;;;;;;;;4998038;28;20053;-75
2021/07/28 10:06:48;;;;;;;5.18;0.80;;;;;;;;;;4996525;28;20073;-75
2021/07/28 10:09:18;;;;;;;3.90;0.60;;;;;;;;;;5017098;28;20034;-76
2021/07/28 10:11:48;;;;;;;4.88;0.70;;;;;;;;;;4992708;28;20068;-76
2021/07/28 10:14:19;;;;;;;4.45;0.60;;;;;;;;;;4997018;28;20539;-75
2021/07/28 10:16:45;;;;;;;0.68;0.30;;;;;;;;;;5006404;28;20115;-75
2021/07/28 10:19:11;;;;;;;0.80;0.43;;;;;;;;;;4999253;28;20083;-76
2021/07/28 10:21:38;;;;;;;1.50;0.70;;;;;;;;;;4994368;28;20018;-75
2021/07/28 10:24:04;;;;;;;5.65;0.63;;;;;;;;;;4986175;28;20045;-74
2021/07/28 10:26:42;;;;;;;1.48;0.47;;;;;;;;;;4973903;28;20037;-75
2021/07/28 10:29:09;;;;;;;1.55;0.50;;;;;;;;;;4989844;28;20027;-75
2021/07/28 10:31:48;;;;;;;2.55;1.20;;;;;;;;;;4994599;28;20033;-75
2021/07/28 10:34:25;;;;;;;6.80;1.60;;;;;;;;;;4987227;28;20118;-75
2021/07/28 10:37:02;;;;;;;1.65;0.50;;;;;;;;;;4983526;28;20097;-75
2021/07/28 10:39:46;;;;;;;2.90;0.70;;;;;;;;;;4978986;28;20120;-74
2021/07/28 10:42:16;;;;;;;0.80;0.52;;;;;;;;;;5001156;28;20531;-75
2021/07/28 10:44:57;;;;;;;2.97;0.70;;;;;;;;;;4996031;28;20042;-75
2021/07/28 10:47:41;;;;;;;2.50;0.90;;;;;;;;;;4984177;28;20037;-74
2021/07/28 10:50:24;;;;;;;4.45;0.80;;;;;;;;;;4991522;28;20026;-75
2021/07/28 10:53:00;;;;;;;4.55;0.77;;;;;;;;;;4990637;28;20027;-74
2021/07/28 10:55:30;;;;;;;1.65;0.80;;;;;;;;;;4985544;28;20039;-74
2021/07/28 10:58:11;;;;;;;1.38;0.52;;;;;;;;;;4987923;28;20532;-73
2021/07/28 11:00:39;;;;;;;2.35;0.75;;;;;;;;;;4990940;28;20046;-74
2021/07/28 11:03:08;;;;;;;2.97;0.88;;;;;;;;;;4991084;28;20187;-74
2021/07/28 11:05:35;;;;;;;1.48;0.50;;;;;;;;;;4987399;28;20118;-74
2021/07/28 11:08:06;;;;;;;1.00;0.50;;;;;;;;;;4986192;28;20053;-76
2021/07/28 11:11:01;;;;;;;2.95;0.60;;;;;;;;;;4990782;28;20022;-73
2021/07/28 11:13:33;;;;;;;1.88;0.57;;;;;;;;;;4995974;28;20311;-75
2021/07/28 11:16:04;;;;;;;1.67;0.68;;;;;;;;;;4982705;28;20040;-74
2021/07/28 11:18:39;;;;;;;1.15;0.40;;;;;;;;;;4993273;28;20034;-74
2021/07/28 11:21:15;;;;;;;3.28;0.50;;;;;;;;;;5001535;28;20042;-74
2021/07/28 11:23:43;;;;;;;4.00;0.80;;;;;;;;;;4988861;28;20056;-74
2021/07/28 11:26:19;;;;;;;2.15;0.57;;;;;;;;;;5005333;28;20009;-75
2021/07/28 11:28:46;;;;;;;0.63;0.40;;;;;;;;;;4994330;28;20292;-74
2021/07/28 11:31:12;;;;;;;1.75;0.70;;;;;;;;;;4994693;28;20779;-78
2021/07/28 11:33:39;;;;;;;16.13;1.00;;;;;;;;;;4984499;28;20034;-77
2021/07/28 11:36:05;;;;;;;11.82;1.80;;;;;;;;;;4995635;28;20030;-75
2021/07/28 11:38:32;;;;;;;6.35;0.47;;;;;;;;;;4995699;28;20037;-76
2021/07/28 11:41:00;;;;;;;3.92;1.00;;;;;;;;;;4998159;28;20081;-75
2021/07/28 11:43:30;;;;;;;5.80;1.10;;;;;;;;;;4995300;28;20018;-76
2021/07/28 11:46:00;;;;;;;7.50;1.08;;;;;;;;;;5001778;28;20457;-75
2021/07/28 11:48:31;;;;;;;4.22;1.00;;;;;;;;;;4994741;28;20219;-75
2021/07/28 11:50:57;;;;;;;1.73;0.88;;;;;;;;;;5000019;28;20026;-76
2021/07/28 11:53:26;;;;;;;6.03;1.85;;;;;;;;;;5000831;28;20485;-75
2021/07/28 11:56:04;;;;;;;2.47;0.70;;;;;;;;;;5005345;28;20050;-76
2021/07/28 11:58:30;;;;;;;7.78;1.13;;;;;;;;;;4995057;28;20596;-76
2021/07/28 12:00:55;;;;;;;4.40;1.10;;;;;;;;;;4999810;28;20034;-76
2021/07/28 12:03:24;;;;;;;4.55;0.90;;;;;;;;;;5009539;28;20034;-76
2021/07/28 12:06:01;;;;;;;6.57;1.23;;;;;;;;;;4994540;28;20025;-76
2021/07/28 12:08:34;;;;;;;4.00;1.00;;;;;;;;;;4991461;28;20029;-75
2021/07/28 12:11:12;;;;;;;4.55;1.05;;;;;;;;;;4988642;28;20119;-75
2021/07/28 12:13:45;;;;;;;2.78;0.90;;;;;;;;;;4997655;28;20034;-76
2021/07/28 12:16:12;;;;;;;2.75;1.00;;;;;;;;;;5002395;28;20026;-76
2021/07/28 12:18:45;;;;;;;2.65;0.77;;;;;;;;;;4973869;28;20037;-76
2021/07/28 12:21:12;;;;;;;4.90;0.90;;;;;;;;;;5012502;28;20030;-75
2021/07/28 12:23:53;;;;;;;3.45;0.57;;;;;;;;;;4992775;28;20046;-76
2021/07/28 12:26:44;;;;;;;1.92;0.90;;;;;;;;;;4988133;28;20065;-74
2021/07/28 12:29:10;;;;;;;5.28;0.60;;;;;;;;;;4986409;28;20030;-74
2021/07/28 12:31:36;;;;;;;4.80;0.68;;;;;;;;;;4992150;28;20042;-75
2021/07/28 12:34:20;;;;;;;4.68;0.77;;;;;;;;;;4996660;28;20048;-78
2021/07/28 12:36:46;;;;;;;1.17;0.50;;;;;;;;;;4997311;28;20058;-77
2021/07/28 12:39:12;;;;;;;3.30;0.60;;;;;;;;;;4987217;28;20038;-74
2021/07/28 12:41:38;;;;;;;4.20;0.57;;;;;;;;;;4995259;28;20033;-74
2021/07/28 12:44:04;;;;;;;6.70;0.80;;;;;;;;;;4994658;28;20149;-74
2021/07/28 12:46:29;;;;;;;4.70;0.73;;;;;;;;;;5004621;28;20096;-74
2021/07/28 12:48:55;;;;;;;1.92;0.50;;;;;;;;;;4997133;28;20542;-74
2021/07/28 12:51:22;;;;;;;5.05;0.50;;;;;;;;;;4997804;28;20026;-76
2021/07/28 12:53:48;;;;;;;3.63;0.50;;;;;;;;;;4983401;28;20038;-75
2021/07/28 12:56:14;;;;;;;6.45;0.63;;;;;;;;;;4990593;28;20405;-75
2021/07/28 12:58:40;;;;;;;6.65;0.52;;;;;;;;;;4987462;28;20037;-76
2021/07/28 13:01:05;;;;;;;4.07;0.73;;;;;;;;;;4986637;28;20030;-74
2021/07/28 13:03:33;;;;;;;5.40;0.80;;;;;;;;;;4980665;28;20125;-75
2021/07/28 13:06:09;;;;;;;4.55;0.60;;;;;;;;;;4971710;28;20122;-75
2021/07/28 13:08:35;;;;;;;1.58;0.65;;;;;;;;;;4992980;28;20030;-74
2021/07/28 13:11:00;;;;;;;1.20;0.38;;;;;;;;;;4973268;28;20497;-75
2021/07/28 13:13:26;;;;;;;5.18;0.52;;;;;;;;;;4996620;28;20034;-75
2021/07/28 13:15:52;;;;;;;4.80;0.55;;;;;;;;;;4965385;28;20038;-75
2021/07/28 13:18:17;;;;;;;1.98;0.30;;;;;;;;;;4978401;28;20131;-75
2021/07/28 13:20:43;;;;;;;1.92;0.50;;;;;;;;;;4964931;28;20457;-75
2021/07/28 13:23:11;;;;;;;6.72;0.63;;;;;;;;;;4990373;28;20026;-76
2021/07/28 13:25:37;;;;;;;2.88;0.68;;;;;;;;;;4985530;28;20053;-74
2021/07/28 13:28:04;;;;;;;8.30;0.50;;;;;;;;;;4992635;28;20026;-75
2021/07/28 13:30:30;;;;;;;6.72;0.50;;;;;;;;;;4977067;28;20045;-74
2021/07/28 13:32:57;;;;;;;4.32;0.47;;;;;;;;;;4986767;28;20041;-75
2021/07/28 13:35:22;;;;;;;7.38;0.70;;;;;;;;;;4982019;28;20029;-75
2021/07/28 13:37:50;;;;;;;2.55;0.90;;;;;;;;;;4994722;28;20038;-74
2021/07/28 13:40:18;;;;;;;5.25;0.40;;;;;;;;;;4981434;28;20125;-74
2021/07/28 13:42:49;;;;;;;6.47;0.47;;;;;;;;;;4950067;28;20031;-74
2021/07/28 13:45:14;;;;;;;2.63;0.30;;;;;;;;;;4980808;28;20023;-74
2021/07/28 13:47:44;;;;;;;3.03;0.50;;;;;;;;;;4980823;28;20275;-74
2021/07/28 13:50:11;;;;;;;2.42;0.80;;;;;;;;;;4988666;28;20161;-74
2021/07/28 13:52:37;;;;;;;1.08;0.47;;;;;;;;;;4983156;28;20058;-73
2021/07/28 13:55:03;;;;;;;3.03;0.50;;;;;;;;;;5008837;28;20555;-74
2021/07/28 13:57:28;;;;;;;3.80;0.90;;;;;;;;;;4985631;28;20034;-74
2021/07/28 13:59:54;;;;;;;5.05;0.70;;;;;;;;;;4988408;28;20066;-75
2021/07/28 14:02:19;;;;;;;5.38;0.60;;;;;;;;;;4982393;28;20072;-74
2021/07/28 14:04:45;;;;;;;2.65;0.50;;;;;;;;;;4983418;28;20018;-74
2021/07/28 14:07:12;;;;;;;1.30;0.47;;;;;;;;;;4981270;28;20096;-75
2021/07/28 14:09:38;;;;;;;2.42;0.50;;;;;;;;;;4983869;28;20038;-74
2021/07/28 14:12:05;;;;;;;1.30;0.40;;;;;;;;;;4972955;28;20544;-75
2021/07/28 14:14:32;;;;;;;1.25;0.45;;;;;;;;;;4992259;28;20108;-75
2021/07/28 14:17:03;;;;;;;4.13;0.52;;;;;;;;;;4980634;28;20034;-72
2021/07/28 14:19:29;;;;;;;6.32;0.30;;;;;;;;;;4986460;28;20032;-74
2021/07/28 14:21:55;;;;;;;0.40;0.30;;;;;;;;;;4982203;28;20034;-73
2021/07/28 14:24:21;;;;;;;1.35;0.20;;;;;;;;;;4986694;28;20121;-73
2021/07/28 14:26:46;;;;;;;2.28;0.38;;;;;;;;;;4988659;28;20113;-73
2021/07/28 14:29:13;;;;;;;5.28;0.35;;;;;;;;;;4984660;28;20354;-73
2021/07/28 14:31:39;;;;;;;0.88;0.40;;;;;;;;;;4985883;28;20045;-73
2021/07/28 14:34:04;;;;;;;1.67;0.38;;;;;;;;;;4987212;28;20490;-73
2021/07/28 14:36:30;;;;;;;1.20;0.40;;;;;;;;;;5007294;28;20501;-73
2021/07/28 14:38:56;;;;;;;1.73;0.40;;;;;;;;;;4990875;28;20034;-75
2021/07/28 14:41:22;;;;;;;4.03;0.60;;;;;;;;;;4987756;28;20089;-74
2021/07/28 14:43:49;;;;;;;0.35;0.25;;;;;;;;;;4990968;28;20128;-74
2021/07/28 14:46:15;;;;;;;5.63;0.40;;;;;;;;;;4981939;28;20038;-73